createdAt,value
2022-08-05T00:01:27.910Z,100648.66
2022-08-05T00:06:33.192Z,100654.41
2022-08-05T00:11:48.214Z,100605.97
2022-08-05T00:16:53.030Z,100596.69
2022-08-05T00:21:55.571Z,100595.25
2022-08-05T00:26:57.321Z,100620.50
2022-08-05T00:32:12.596Z,100617.50
2022-08-05T00:37:15.973Z,100632.28
2022-08-05T00:42:31.928Z,100696.53
2022-08-05T00:47:56.302Z,100727.72
2022-08-05T00:52:55.815Z,100731.41
2022-08-05T00:57:58.980Z,100730.00
2022-08-05T01:03:01.007Z,100729.16
2022-08-05T01:08:40.391Z,100714.53
2022-08-05T01:13:58.735Z,100717.47
2022-08-05T01:18:56.606Z,100725.38
2022-08-05T01:24:14.424Z,100720.44
2022-08-05T01:29:23.238Z,100701.91
2022-08-05T01:34:27.119Z,100689.25
2022-08-05T01:39:47.287Z,100693.91
2022-08-05T01:44:54.060Z,100671.97
2022-08-05T01:50:01.704Z,100671.38
2022-08-05T01:55:06.801Z,100685.69
2022-08-05T02:00:11.617Z,100683.16
2022-08-05T02:05:14.025Z,100688.56
2022-08-05T02:10:17.562Z,100689.38
2022-08-05T02:15:26.487Z,100690.84
2022-08-05T02:20:40.506Z,100690.78
2022-08-05T02:25:50.174Z,100708.66
2022-08-05T02:30:56.539Z,100703.53
2022-08-05T02:36:01.109Z,100714.47
2022-08-05T02:41:14.543Z,100698.66
2022-08-05T02:46:18.795Z,100697.00
2022-08-05T02:52:03.233Z,100696.25
2022-08-05T02:56:51.136Z,100699.75
2022-08-05T03:01:54.297Z,100691.31
2022-08-05T03:06:59.334Z,100708.66
2022-08-05T03:12:01.893Z,100705.91
2022-08-05T03:17:08.706Z,100702.47
2022-08-05T03:22:16.234Z,100703.91
2022-08-05T03:27:21.861Z,100731.66
2022-08-05T03:32:30.680Z,100786.78
2022-08-05T03:37:45.702Z,100740.72
2022-08-05T03:42:51.670Z,100712.41
2022-08-05T03:47:56.709Z,100685.19
2022-08-05T03:54:59.154Z,100689.19
2022-08-05T03:58:28.965Z,100641.63
2022-08-05T04:03:35.849Z,100629.38
2022-08-05T04:08:39.871Z,100653.25
2022-08-05T04:13:50.487Z,100698.44
2022-08-05T04:18:54.778Z,100689.69
2022-08-05T04:24:06.650Z,100693.66
2022-08-05T04:29:08.753Z,100705.91
2022-08-05T04:34:19.082Z,100679.59
2022-08-05T04:39:33.522Z,100633.31
2022-08-05T04:44:37.319Z,100647.19
2022-08-05T04:50:02.977Z,100646.56
2022-08-05T04:55:13.761Z,100646.44
2022-08-05T05:00:16.872Z,100655.19
2022-08-05T05:05:28.779Z,100641.31
2022-08-05T05:10:33.137Z,100639.56
2022-08-05T05:15:59.272Z,100618.22
2022-08-05T05:20:57.322Z,100668.19
2022-08-05T05:26:00.378Z,100674.69
2022-08-05T05:31:02.336Z,100676.31
2022-08-05T05:36:07.825Z,100695.97
2022-08-05T05:41:12.262Z,100696.41
2022-08-05T05:46:18.919Z,100704.63
2022-08-05T05:51:21.717Z,100704.34
2022-08-05T05:56:26.120Z,100714.31
2022-08-05T06:01:37.495Z,100730.00
2022-08-05T06:06:41.842Z,100744.91
2022-08-05T06:11:58.939Z,100731.59
2022-08-05T06:17:22.301Z,100723.38
2022-08-05T06:22:29.754Z,100742.25
2022-08-05T06:28:10.473Z,100744.53
2022-08-05T06:32:53.493Z,100753.84
2022-08-05T06:37:58.403Z,100746.09
2022-08-05T06:43:00.673Z,100769.94
2022-08-05T06:48:36.110Z,100825.63
2022-08-05T06:53:27.726Z,100850.50
2022-08-05T06:58:36.363Z,100879.44
2022-08-05T07:03:38.320Z,100866.22
2022-08-05T07:08:40.029Z,100866.16
2022-08-05T07:14:02.260Z,100852.28
2022-08-05T07:19:04.236Z,100822.63
2022-08-05T07:24:11.177Z,100783.06
2022-08-05T07:29:13.496Z,100745.72
2022-08-05T07:34:15.516Z,100747.31
2022-08-05T07:39:24.678Z,100749.97
2022-08-05T07:44:46.331Z,100743.75
2022-08-05T07:49:54.245Z,100734.28
2022-08-05T07:54:57.044Z,100720.31
2022-08-05T07:59:59.721Z,100704.75
2022-08-05T08:05:01.598Z,100712.16
2022-08-05T08:10:03.639Z,100692.28
2022-08-05T08:15:14.301Z,100692.75
2022-08-05T08:20:43.194Z,100698.91
2022-08-05T08:25:59.795Z,100733.44
2022-08-05T08:31:01.187Z,100741.16
2022-08-05T08:36:29.723Z,100748.97
2022-08-05T08:41:50.721Z,100741.97
2022-08-05T08:46:48.018Z,100762.38
2022-08-05T08:52:03.433Z,100761.72
2022-08-05T08:57:11.314Z,100761.53
2022-08-05T09:02:14.486Z,100758.31
2022-08-05T09:07:28.533Z,100777.47
2022-08-05T09:12:31.340Z,100759.56
2022-08-05T09:17:42.826Z,100794.84
2022-08-05T09:23:05.555Z,100813.53
2022-08-05T09:28:14.993Z,100820.31
2022-08-05T09:33:23.511Z,100800.09
2022-08-05T09:38:36.718Z,100804.28
2022-08-05T09:43:41.659Z,100800.25
2022-08-05T09:48:55.122Z,100809.09
2022-08-05T09:54:08.392Z,100812.88
2022-08-05T09:59:17.265Z,100815.91
2022-08-05T10:04:19.324Z,100829.59
2022-08-05T10:09:44.919Z,100828.31
2022-08-05T10:14:47.243Z,100835.88
2022-08-05T10:20:04.458Z,100843.88
2022-08-05T10:25:14.387Z,100851.84
2022-08-05T10:31:20.102Z,100848.00
2022-08-05T10:35:40.668Z,100849.38
2022-08-05T10:40:52.118Z,100856.66
2022-08-05T10:46:06.706Z,100867.09
2022-08-05T10:51:21.942Z,100869.22
2022-08-05T10:56:36.376Z,100868.19
2022-08-05T11:01:55.662Z,100871.81
2022-08-05T11:07:05.492Z,100858.44
2022-08-05T11:12:43.815Z,100854.31
2022-08-05T11:17:56.878Z,100865.59
2022-08-05T11:23:33.626Z,100861.53
2022-08-05T11:28:51.382Z,100874.41
2022-08-05T11:33:56.042Z,100890.81
2022-08-05T11:39:00.371Z,100908.25
2022-08-05T11:44:08.273Z,100914.47
2022-08-05T11:49:14.076Z,100929.63
2022-08-05T11:54:33.931Z,100938.78
2022-08-05T11:59:41.339Z,100934.88
2022-08-05T12:04:53.474Z,100963.09
2022-08-05T12:10:09.042Z,100959.81
2022-08-05T12:15:38.353Z,100965.28
2022-08-05T12:20:41.823Z,100964.13
2022-08-05T12:25:53.638Z,100972.03
2022-08-05T12:31:02.476Z,100976.56
2022-08-05T12:36:08.600Z,100999.47
2022-08-05T12:41:13.516Z,100999.41
2022-08-05T12:46:29.422Z,101021.13
2022-08-05T12:52:12.603Z,101037.88
2022-08-05T12:56:55.435Z,101050.41
2022-08-05T13:02:07.162Z,101065.59
2022-08-05T13:07:16.126Z,101057.72
2022-08-05T13:12:20.155Z,101060.19
2022-08-05T13:17:31.646Z,101056.31
2022-08-05T13:22:43.980Z,101075.69
2022-08-05T13:27:53.736Z,101077.53
2022-08-05T13:32:56.511Z,101062.94
2022-08-05T13:37:58.400Z,101064.44
2022-08-05T13:43:12.130Z,101057.00
2022-08-05T13:48:57.908Z,101069.81
2022-08-05T13:53:48.221Z,101068.03
2022-08-05T13:58:53.311Z,101065.69
2022-08-05T14:04:14.083Z,101059.03
2022-08-05T14:09:16.208Z,101063.91
2022-08-05T14:14:23.281Z,101089.75
2022-08-05T14:19:27.882Z,101091.94
2022-08-05T14:24:30.667Z,101099.00
2022-08-05T14:29:34.549Z,101112.53
2022-08-05T14:34:36.314Z,101118.97
2022-08-05T14:39:49.610Z,101138.59
2022-08-05T14:44:58.419Z,101132.78
2022-08-05T14:50:06.684Z,101134.47
2022-08-05T14:55:16.264Z,101144.00
2022-08-05T15:00:21.410Z,101152.84
2022-08-05T15:06:08.379Z,101143.41
2022-08-05T15:10:52.007Z,101163.03
2022-08-05T15:15:56.583Z,101158.19
2022-08-05T15:20:58.403Z,101179.53
2022-08-05T15:26:09.485Z,101184.97
2022-08-05T15:31:11.640Z,101174.91
2022-08-05T15:36:17.447Z,101180.84
2022-08-05T15:41:27.401Z,101185.97
2022-08-05T15:46:49.144Z,101190.25
2022-08-05T15:52:13.080Z,101188.72
2022-08-05T15:57:16.044Z,101190.38
2022-08-05T16:02:19.484Z,101194.38
2022-08-05T16:07:29.541Z,101190.38
2022-08-05T16:12:31.484Z,101182.59
2022-08-05T16:17:33.771Z,101193.22
2022-08-05T16:22:36.032Z,101202.03
2022-08-05T16:28:00.851Z,101195.78
2022-08-05T16:33:01.635Z,101206.28
2022-08-05T16:38:18.420Z,101193.66
2022-08-05T16:43:25.430Z,101204.84
2022-08-05T16:48:33.578Z,101192.81
2022-08-05T16:54:05.331Z,101197.06
2022-08-05T16:59:08.492Z,101205.84
2022-08-05T17:04:10.517Z,101210.38
2022-08-05T17:09:12.211Z,101200.78
2022-08-05T17:14:22.148Z,101208.63
2022-08-05T17:19:36.410Z,101214.38
2022-08-05T17:24:40.951Z,101221.41
2022-08-05T17:29:50.177Z,101212.19
2022-08-05T17:35:01.531Z,101215.00
2022-08-05T17:40:05.490Z,101219.47
2022-08-05T17:45:17.837Z,101221.00
2022-08-05T17:50:28.910Z,101218.78
2022-08-05T17:55:34.296Z,101217.63
2022-08-05T18:00:45.489Z,101216.13
2022-08-05T18:05:53.430Z,101228.66
2022-08-05T18:10:56.064Z,101236.81
2022-08-05T18:15:59.143Z,101236.69
2022-08-05T18:21:00.875Z,101254.50
2022-08-05T18:26:03.500Z,101261.97
2022-08-05T18:31:07.198Z,101270.84
2022-08-05T18:36:15.307Z,101267.06
2022-08-05T18:41:54.956Z,101290.78
2022-08-05T18:46:41.053Z,101291.38
2022-08-05T18:52:08.998Z,101298.81
2022-08-05T18:57:15.353Z,101326.50
2022-08-05T19:02:28.299Z,101332.75
2022-08-05T19:07:45.174Z,101334.09
2022-08-05T19:12:48.560Z,101352.41
2022-08-05T19:18:08.498Z,101359.06
2022-08-05T19:24:03.861Z,101369.22
2022-08-05T19:28:34.928Z,101387.03
2022-08-05T19:33:38.046Z,101400.38
2022-08-05T19:38:43.683Z,101404.31
2022-08-05T19:44:05.506Z,101416.91
2022-08-05T19:49:07.124Z,101427.66
2022-08-05T19:54:25.517Z,101433.25
2022-08-05T19:59:56.131Z,101456.34
2022-08-05T20:04:58.685Z,101460.88
2022-08-05T20:10:01.256Z,101461.00
2022-08-05T20:15:03.024Z,101463.75
2022-08-05T20:20:09.507Z,101471.78
2022-08-05T20:25:12.825Z,101483.25
2022-08-05T20:30:14.528Z,101493.00
2022-08-05T20:35:19.967Z,101498.38
2022-08-05T20:40:21.673Z,101507.22
2022-08-05T20:45:23.333Z,101516.03
2022-08-05T20:50:45.577Z,101529.28
2022-08-05T20:55:56.663Z,101523.19
2022-08-05T21:01:10.303Z,101539.06
2022-08-05T21:06:27.819Z,101532.94
2022-08-05T21:12:10.424Z,101529.47
2022-08-05T21:16:52.196Z,101543.53
2022-08-05T21:21:54.184Z,101541.81
2022-08-05T21:26:58.314Z,101553.25
2022-08-05T21:32:03.542Z,101555.88
2022-08-05T21:37:05.334Z,101562.03
2022-08-05T21:42:07.331Z,101562.91
2022-08-05T21:47:55.603Z,101573.44
2022-08-05T21:52:50.713Z,101568.19
2022-08-05T21:57:52.691Z,101576.09
2022-08-05T22:02:55.352Z,101576.09
2022-08-05T22:07:59.470Z,101584.81
2022-08-05T22:13:08.846Z,101592.72
2022-08-05T22:18:25.792Z,101590.06
2022-08-05T22:24:02.320Z,101587.41
2022-08-05T22:29:05.617Z,101602.31
2022-08-05T22:34:07.292Z,101611.06
2022-08-05T22:39:12.697Z,101614.53
2022-08-05T22:44:14.579Z,101604.91
2022-08-05T22:49:46.139Z,101615.38
2022-08-05T22:54:46.689Z,101618.88
2022-08-05T22:59:54.093Z,101624.13
2022-08-05T23:04:56.314Z,101614.41
2022-08-05T23:10:01.575Z,101620.53
2022-08-05T23:15:09.011Z,101626.66
2022-08-05T23:20:17.934Z,101638.88
2022-08-05T23:25:52.197Z,101634.38
2022-08-05T23:30:43.326Z,101629.94
2022-08-05T23:35:45.687Z,101642.16
2022-08-05T23:40:50.194Z,101648.25
2022-08-05T23:45:52.208Z,101654.38
2022-08-05T23:50:55.068Z,101657.00
2022-08-05T23:55:57.170Z,101665.66
